createdAt,value
2023-04-06T00:01:06.758Z,12.65
2023-04-06T00:03:34.728Z,12.07
2023-04-06T00:06:02.768Z,12.32
2023-04-06T00:08:30.749Z,12.95
2023-04-06T00:11:00.059Z,13.15
2023-04-06T00:13:28.058Z,11.77
2023-04-06T00:15:56.139Z,11.98
2023-04-06T00:18:24.448Z,12.00
2023-04-06T00:20:52.492Z,13.00
2023-04-06T00:23:20.630Z,10.77
2023-04-06T00:25:48.601Z,10.40
2023-04-06T00:28:18.159Z,10.95
2023-04-06T00:30:46.258Z,12.88
2023-04-06T00:33:14.325Z,10.90
2023-04-06T00:35:42.427Z,12.15
2023-04-06T00:38:10.424Z,11.48
2023-04-06T00:40:40.478Z,10.77
2023-04-06T00:45:40.791Z,15.05
2023-04-06T00:48:09.445Z,11.05
2023-04-06T00:50:37.759Z,11.18
2023-04-06T00:53:06.134Z,11.23
2023-04-06T00:55:35.415Z,10.63
2023-04-06T00:58:03.408Z,11.13
2023-04-06T01:00:36.828Z,9.70
2023-04-06T01:03:07.921Z,9.30
2023-04-06T01:05:43.187Z,9.65
2023-04-06T01:08:18.961Z,10.20
2023-04-06T01:10:47.861Z,10.25
2023-04-06T01:13:28.228Z,10.38
2023-04-06T01:16:01.268Z,10.88
2023-04-06T01:18:49.727Z,9.68
2023-04-06T01:21:21.441Z,13.63
2023-04-06T01:24:26.361Z,10.77
2023-04-06T01:27:13.390Z,11.13
2023-04-06T01:30:03.081Z,10.70
2023-04-06T01:33:00.444Z,11.82
2023-04-06T01:35:43.548Z,10.93
2023-04-06T01:38:15.823Z,11.77
2023-04-06T01:40:46.636Z,11.75
2023-04-06T01:43:15.671Z,11.38
2023-04-06T01:46:09.782Z,10.95
2023-04-06T01:48:41.490Z,12.65
2023-04-06T01:51:19.191Z,14.95
2023-04-06T01:54:12.930Z,11.20
2023-04-06T01:57:00.950Z,11.98
2023-04-06T01:59:54.868Z,10.98
2023-04-06T02:02:29.074Z,11.52
2023-04-06T02:05:08.528Z,10.80
2023-04-06T02:07:37.676Z,11.68
2023-04-06T02:10:12.801Z,11.82
2023-04-06T02:12:42.530Z,10.95
2023-04-06T02:15:15.462Z,12.52
2023-04-06T02:17:44.696Z,12.00
2023-04-06T02:20:13.005Z,12.00
2023-04-06T02:22:41.216Z,12.15
2023-04-06T02:25:10.072Z,12.35
2023-04-06T02:27:38.141Z,12.77
2023-04-06T02:30:09.644Z,11.98
2023-04-06T02:32:37.977Z,13.20
2023-04-06T02:35:07.066Z,11.73
2023-04-06T02:37:36.429Z,11.90
2023-04-06T02:40:04.929Z,11.40
2023-04-06T02:42:33.813Z,11.57
2023-04-06T02:45:01.902Z,11.57
2023-04-06T02:47:36.155Z,12.40
2023-04-06T02:50:05.519Z,12.43
2023-04-06T02:52:36.642Z,12.80
2023-04-06T02:55:06.066Z,13.55
2023-04-06T02:57:34.038Z,13.95
2023-04-06T03:00:02.096Z,13.70
2023-04-06T03:02:39.878Z,13.05
2023-04-06T03:05:11.653Z,14.85
2023-04-06T03:07:43.391Z,13.95
2023-04-06T03:10:18.107Z,13.70
2023-04-06T03:15:23.261Z,13.10
2023-04-06T03:18:02.234Z,13.75
2023-04-06T03:20:38.848Z,13.85
2023-04-06T03:23:06.986Z,14.55
2023-04-06T03:25:40.546Z,13.48
2023-04-06T03:28:11.022Z,14.18
2023-04-06T03:30:48.581Z,14.48
2023-04-06T03:33:21.800Z,13.55
2023-04-06T03:35:55.005Z,13.70
2023-04-06T03:38:25.947Z,12.98
2023-04-06T03:40:54.844Z,12.13
2023-04-06T03:43:26.613Z,12.82
2023-04-06T03:45:55.049Z,11.70
2023-04-06T03:48:24.408Z,12.20
2023-04-06T03:50:52.307Z,12.05
2023-04-06T03:53:20.255Z,11.40
2023-04-06T03:55:48.150Z,10.98
2023-04-06T03:58:16.234Z,11.00
2023-04-06T04:00:44.177Z,11.00
2023-04-06T04:03:12.206Z,12.05
2023-04-06T04:05:41.646Z,11.20
2023-04-06T04:08:10.485Z,12.60
2023-04-06T04:10:38.419Z,13.73
2023-04-06T04:13:06.346Z,12.63
2023-04-06T04:15:34.454Z,14.30
2023-04-06T04:18:02.500Z,14.05
2023-04-06T04:20:30.663Z,16.67
2023-04-06T04:22:59.925Z,12.88
2023-04-06T04:25:30.836Z,13.23
2023-04-06T04:27:58.809Z,12.25
2023-04-06T04:30:26.772Z,12.10
2023-04-06T04:32:54.943Z,12.07
2023-04-06T04:35:24.918Z,11.98
2023-04-06T04:37:53.068Z,13.60
2023-04-06T04:40:22.514Z,12.13
2023-04-06T04:42:59.487Z,12.48
2023-04-06T04:45:33.557Z,12.63
2023-04-06T04:48:09.793Z,12.45
2023-04-06T04:50:49.351Z,13.25
2023-04-06T04:53:19.001Z,14.98
2023-04-06T04:55:49.197Z,12.88
2023-04-06T04:58:19.896Z,13.77
2023-04-06T05:00:59.784Z,13.55
2023-04-06T05:03:29.189Z,13.98
2023-04-06T05:06:03.806Z,14.23
2023-04-06T05:08:35.765Z,14.15
2023-04-06T05:11:05.526Z,14.93
2023-04-06T05:13:40.998Z,14.07
2023-04-06T05:16:14.977Z,14.25
2023-04-06T05:18:43.141Z,13.38
2023-04-06T05:21:12.651Z,14.55
2023-04-06T05:24:03.033Z,14.20
2023-04-06T05:26:34.580Z,14.55
2023-04-06T05:29:08.985Z,13.73
2023-04-06T05:31:39.362Z,14.57
2023-04-06T05:34:07.533Z,14.73
2023-04-06T05:36:38.381Z,15.25
2023-04-06T05:39:15.423Z,15.57
2023-04-06T05:41:51.971Z,15.23
2023-04-06T05:44:31.187Z,16.08
2023-04-06T05:47:08.352Z,16.00
2023-04-06T05:49:38.597Z,16.92
2023-04-06T05:52:11.838Z,16.73
2023-04-06T05:54:41.209Z,19.33
2023-04-06T05:57:10.574Z,17.98
2023-04-06T05:59:38.950Z,17.88
2023-04-06T06:02:07.780Z,20.10
2023-04-06T06:04:40.916Z,16.75
2023-04-06T06:07:08.972Z,17.23
2023-04-06T06:09:45.429Z,17.45
2023-04-06T06:12:22.875Z,17.45
2023-04-06T06:14:51.964Z,17.92
2023-04-06T06:17:21.215Z,18.17
2023-04-06T06:19:50.025Z,17.90
2023-04-06T06:22:18.299Z,17.20
2023-04-06T06:24:48.479Z,18.77
2023-04-06T06:27:19.459Z,17.40
2023-04-06T06:29:50.621Z,17.60
2023-04-06T06:32:20.317Z,16.98
2023-04-06T06:34:52.087Z,21.17
2023-04-06T06:37:21.031Z,18.27
2023-04-06T06:39:50.031Z,18.48
2023-04-06T06:42:18.841Z,18.40
2023-04-06T06:45:14.675Z,20.00
2023-04-06T06:47:43.232Z,19.75
2023-04-06T06:50:13.022Z,27.45
2023-04-06T06:52:42.266Z,29.13
2023-04-06T06:55:11.990Z,64.65
2023-04-06T06:57:39.951Z,58.28
2023-04-06T07:00:12.910Z,63.57
2023-04-06T07:02:43.748Z,72.15
2023-04-06T07:05:24.252Z,50.15
2023-04-06T07:07:57.262Z,34.83
2023-04-06T07:10:25.710Z,46.70
2023-04-06T07:12:53.813Z,59.85
2023-04-06T07:15:21.888Z,26.30
2023-04-06T07:17:53.377Z,23.17
2023-04-06T07:20:21.418Z,19.05
2023-04-06T07:22:49.552Z,14.98
2023-04-06T07:25:17.573Z,12.98
2023-04-06T07:27:45.597Z,13.65
2023-04-06T07:30:14.129Z,13.95
2023-04-06T07:32:42.207Z,10.48
2023-04-06T07:35:12.201Z,10.85
2023-04-06T07:37:40.325Z,11.65
2023-04-06T07:40:10.376Z,10.57
2023-04-06T07:42:39.113Z,11.07
2023-04-06T07:45:12.169Z,12.00
2023-04-06T07:47:40.315Z,11.10
2023-04-06T07:50:09.574Z,10.50
2023-04-06T07:52:38.902Z,11.10
2023-04-06T07:55:08.058Z,10.65
2023-04-06T07:57:36.026Z,10.43
2023-04-06T08:00:04.763Z,11.45
2023-04-06T08:02:40.292Z,12.43
2023-04-06T08:05:09.098Z,10.52
2023-04-06T08:07:38.859Z,9.10
2023-04-06T08:10:07.268Z,8.15
2023-04-06T08:12:35.926Z,9.43
2023-04-06T08:15:05.476Z,8.95
2023-04-06T08:17:35.096Z,10.77
2023-04-06T08:20:04.318Z,10.70
2023-04-06T08:22:32.246Z,8.55
2023-04-06T08:25:01.498Z,10.35
2023-04-06T08:27:29.488Z,8.32
2023-04-06T08:29:57.517Z,8.93
2023-04-06T08:32:25.651Z,7.88
2023-04-06T08:34:55.938Z,9.23
2023-04-06T08:39:51.645Z,8.05
2023-04-06T08:42:23.934Z,8.80
2023-04-06T08:44:53.298Z,9.35
2023-04-06T08:47:24.531Z,9.17
2023-04-06T08:49:53.219Z,10.32
2023-04-06T08:52:21.807Z,8.27
2023-04-06T08:54:49.740Z,8.25
2023-04-06T08:57:18.627Z,9.32
2023-04-06T08:59:48.446Z,8.35
2023-04-06T09:02:20.304Z,9.70
2023-04-06T09:04:50.929Z,9.45
2023-04-06T09:07:19.018Z,8.73
2023-04-06T09:09:49.649Z,11.43
2023-04-06T09:12:27.925Z,8.57
2023-04-06T09:14:58.889Z,8.85
2023-04-06T09:17:28.920Z,11.93
2023-04-06T09:19:57.315Z,8.75
2023-04-06T09:22:27.971Z,8.20
2023-04-06T09:24:56.383Z,9.00
2023-04-06T09:27:33.022Z,9.18
2023-04-06T09:30:14.733Z,10.00
2023-04-06T09:32:50.700Z,9.73
2023-04-06T09:35:21.014Z,9.40
2023-04-06T09:37:49.803Z,10.15
2023-04-06T09:40:18.465Z,9.70
2023-04-06T09:42:48.401Z,9.90
2023-04-06T09:45:17.974Z,8.93
2023-04-06T09:47:47.690Z,9.65
2023-04-06T09:50:17.318Z,9.40
2023-04-06T09:52:50.497Z,9.63
2023-04-06T09:55:26.199Z,9.80
2023-04-06T09:58:00.237Z,9.27
2023-04-06T10:00:32.838Z,9.18
2023-04-06T10:03:09.301Z,8.60
2023-04-06T10:05:43.697Z,10.15
2023-04-06T10:08:12.646Z,13.52
2023-04-06T10:10:40.674Z,10.23
2023-04-06T10:13:12.069Z,11.77
2023-04-06T10:15:41.710Z,10.15
2023-04-06T10:18:10.997Z,10.88
2023-04-06T10:20:44.333Z,11.13
2023-04-06T10:23:17.289Z,11.45
2023-04-06T10:25:56.551Z,10.93
2023-04-06T10:28:25.828Z,11.40
2023-04-06T10:31:01.450Z,11.75
2023-04-06T10:33:31.295Z,11.52
2023-04-06T10:35:59.505Z,13.20
2023-04-06T10:38:41.142Z,12.60
2023-04-06T10:41:11.600Z,12.45
2023-04-06T10:43:41.351Z,11.43
2023-04-06T10:46:13.101Z,11.45
2023-04-06T10:48:42.251Z,11.07
2023-04-06T10:51:11.790Z,12.85
2023-04-06T10:53:39.878Z,12.40
2023-04-06T10:56:12.858Z,12.60
2023-04-06T10:58:45.770Z,13.00
2023-04-06T11:01:17.400Z,12.85
2023-04-06T11:03:46.624Z,12.52
2023-04-06T11:06:20.673Z,11.82
2023-04-06T11:08:48.782Z,12.48
2023-04-06T11:11:19.528Z,14.70
2023-04-06T11:13:49.177Z,12.43
2023-04-06T11:16:20.586Z,12.85
2023-04-06T11:18:53.441Z,12.57
2023-04-06T11:21:21.996Z,12.70
2023-04-06T11:23:49.994Z,13.20
2023-04-06T11:26:18.140Z,13.95
2023-04-06T11:28:46.349Z,13.35
2023-04-06T11:31:14.387Z,13.05
2023-04-06T11:33:43.779Z,13.07
2023-04-06T11:38:41.443Z,12.93
2023-04-06T11:41:09.468Z,12.73
2023-04-06T11:43:37.577Z,13.32
2023-04-06T11:46:07.679Z,12.85
2023-04-06T11:48:48.073Z,13.35
2023-04-06T11:53:51.869Z,13.40
2023-04-06T11:56:27.568Z,13.55
2023-04-06T11:58:57.750Z,13.30
2023-04-06T12:01:26.322Z,12.52
2023-04-06T12:03:56.086Z,13.60
2023-04-06T12:06:24.999Z,15.13
2023-04-06T12:08:52.978Z,14.20
2023-04-06T12:11:22.810Z,14.50
2023-04-06T12:13:51.168Z,13.48
2023-04-06T12:16:20.216Z,13.88
2023-04-06T12:18:48.466Z,13.43
2023-04-06T12:21:17.807Z,14.43
2023-04-06T12:23:45.718Z,14.32
2023-04-06T12:26:13.610Z,12.73
2023-04-06T12:28:41.732Z,12.57
2023-04-06T12:31:16.172Z,13.13
2023-04-06T12:33:45.925Z,14.25
2023-04-06T12:36:14.661Z,13.23
2023-04-06T12:38:46.680Z,13.75
2023-04-06T12:41:14.694Z,14.73
2023-04-06T12:43:43.593Z,13.68
2023-04-06T12:46:12.397Z,13.32
2023-04-06T12:48:40.833Z,13.48
2023-04-06T12:51:09.160Z,13.75
2023-04-06T12:53:38.129Z,14.60
2023-04-06T12:56:14.320Z,14.73
2023-04-06T12:58:43.137Z,15.63
2023-04-06T13:01:11.733Z,15.68
2023-04-06T13:03:39.814Z,16.00
2023-04-06T13:06:09.261Z,15.25
2023-04-06T13:08:38.232Z,17.00
2023-04-06T13:11:09.817Z,15.02
2023-04-06T13:13:38.441Z,16.08
2023-04-06T13:16:08.921Z,15.30
2023-04-06T13:18:39.502Z,16.23
2023-04-06T13:21:08.124Z,16.70
2023-04-06T13:23:36.677Z,15.48
2023-04-06T13:26:07.753Z,16.13
2023-04-06T13:28:39.688Z,16.08
2023-04-06T13:31:08.105Z,15.40
2023-04-06T13:33:36.410Z,16.60
2023-04-06T13:36:05.400Z,17.50
2023-04-06T13:38:34.591Z,16.30
2023-04-06T13:41:02.572Z,15.70
2023-04-06T13:43:31.863Z,15.68
2023-04-06T13:46:01.763Z,14.43
2023-04-06T13:48:29.745Z,15.25
2023-04-06T13:50:57.720Z,14.65
2023-04-06T13:53:25.494Z,15.15
2023-04-06T13:55:56.280Z,14.27
2023-04-06T13:58:24.383Z,15.75
2023-04-06T14:00:53.653Z,15.50
2023-04-06T14:03:22.277Z,17.33
2023-04-06T14:05:50.347Z,15.48
2023-04-06T14:08:18.179Z,14.88
2023-04-06T14:10:46.109Z,17.35
2023-04-06T14:13:13.923Z,18.77
2023-04-06T14:15:41.837Z,15.77
2023-04-06T14:18:11.418Z,15.25
2023-04-06T14:20:39.204Z,15.33
2023-04-06T14:23:07.201Z,16.60
2023-04-06T14:25:35.881Z,16.35
2023-04-06T14:28:04.218Z,16.98
2023-04-06T14:30:32.601Z,16.48
2023-04-06T14:33:00.753Z,16.90
2023-04-06T14:35:31.658Z,17.27
2023-04-06T14:38:00.012Z,17.08
2023-04-06T14:40:27.882Z,17.30
2023-04-06T14:42:56.691Z,17.75
2023-04-06T14:45:24.535Z,14.77
2023-04-06T14:47:52.425Z,16.55
2023-04-06T14:50:20.202Z,15.90
2023-04-06T14:52:49.502Z,16.50
2023-04-06T14:55:17.418Z,16.75
2023-04-06T14:57:45.273Z,16.42
2023-04-06T15:00:14.382Z,14.88
2023-04-06T15:02:44.198Z,18.65
2023-04-06T15:05:12.659Z,16.10
2023-04-06T15:07:40.520Z,14.48
2023-04-06T15:10:12.364Z,15.05
2023-04-06T15:12:40.336Z,15.75
2023-04-06T15:15:09.059Z,16.27
2023-04-06T15:17:36.902Z,16.58
2023-04-06T15:20:05.519Z,17.33
2023-04-06T15:22:33.453Z,16.52
2023-04-06T15:25:02.341Z,20.48
2023-04-06T15:27:31.644Z,16.25
2023-04-06T15:30:00.595Z,16.40
2023-04-06T15:32:28.690Z,15.45
2023-04-06T15:34:58.069Z,16.67
2023-04-06T15:37:25.939Z,16.40
2023-04-06T15:39:53.924Z,15.57
2023-04-06T15:42:21.741Z,15.95
2023-04-06T15:44:50.953Z,15.68
2023-04-06T15:47:18.754Z,16.65
2023-04-06T15:49:46.659Z,16.70
2023-04-06T15:52:14.482Z,16.67
2023-04-06T15:54:42.359Z,15.75
2023-04-06T15:57:10.312Z,15.45
2023-04-06T15:59:38.077Z,15.48
2023-04-06T16:02:07.533Z,15.77
2023-04-06T16:04:35.622Z,15.57
2023-04-06T16:07:03.631Z,13.77
2023-04-06T16:09:31.485Z,15.02
2023-04-06T16:11:59.469Z,14.20
2023-04-06T16:14:27.352Z,14.95
2023-04-06T16:16:55.307Z,15.27
2023-04-06T16:19:24.587Z,14.85
2023-04-06T16:21:52.309Z,16.75
2023-04-06T16:24:20.418Z,15.20
2023-04-06T16:26:49.404Z,15.05
2023-04-06T16:29:18.048Z,14.63
2023-04-06T16:31:47.888Z,14.07
2023-04-06T16:34:15.930Z,14.68
2023-04-06T16:36:45.146Z,14.75
2023-04-06T16:39:13.153Z,14.68
2023-04-06T16:41:40.976Z,15.85
2023-04-06T16:44:09.270Z,14.40
2023-04-06T16:46:38.335Z,14.50
2023-04-06T16:49:06.965Z,14.85
2023-04-06T16:51:34.779Z,14.75
2023-04-06T16:54:04.184Z,14.05
2023-04-06T16:56:33.561Z,17.27
2023-04-06T16:59:01.445Z,15.33
2023-04-06T17:01:30.199Z,14.65
2023-04-06T17:03:58.512Z,14.98
2023-04-06T17:06:27.725Z,14.98
2023-04-06T17:08:55.730Z,14.90
2023-04-06T17:11:48.547Z,15.20
2023-04-06T17:14:12.997Z,14.20
2023-04-06T17:16:40.930Z,13.98
2023-04-06T17:19:08.925Z,14.07
2023-04-06T17:21:36.954Z,14.32
2023-04-06T17:24:05.064Z,14.07
2023-04-06T17:26:34.460Z,14.70
2023-04-06T17:29:02.380Z,20.88
2023-04-06T17:31:30.323Z,21.23
2023-04-06T17:33:58.659Z,17.20
2023-04-06T17:36:27.868Z,18.83
2023-04-06T17:38:55.815Z,18.35
2023-04-06T17:41:24.155Z,16.10
2023-04-06T17:43:53.347Z,18.00
2023-04-06T17:46:21.595Z,20.42
2023-04-06T17:48:50.805Z,19.30
2023-04-06T17:51:19.443Z,19.63
2023-04-06T17:53:47.828Z,16.08
2023-04-06T17:56:15.703Z,15.65
2023-04-06T17:58:43.559Z,14.40
2023-04-06T18:01:12.975Z,16.08
2023-04-06T18:03:41.179Z,16.07
2023-04-06T18:06:16.679Z,16.60
2023-04-06T18:08:44.687Z,14.35
2023-04-06T18:11:17.043Z,14.80
2023-04-06T18:13:44.991Z,15.55
2023-04-06T18:16:14.602Z,16.48
2023-04-06T18:18:42.551Z,14.63
2023-04-06T18:21:10.380Z,14.60
2023-04-06T18:23:38.577Z,14.10
2023-04-06T18:26:07.421Z,16.00
2023-04-06T18:28:35.490Z,14.30
2023-04-06T18:31:03.389Z,16.75
2023-04-06T18:33:33.830Z,16.33
2023-04-06T18:36:01.620Z,21.50
2023-04-06T18:38:29.524Z,14.80
2023-04-06T18:40:57.775Z,21.35
2023-04-06T18:43:26.244Z,20.38
2023-04-06T18:45:54.248Z,16.48
2023-04-06T18:48:22.232Z,14.70
2023-04-06T18:50:54.878Z,16.95
2023-04-06T18:53:22.825Z,17.25
2023-04-06T18:55:51.476Z,17.17
2023-04-06T18:58:19.367Z,14.85
2023-04-06T19:00:47.233Z,14.35
2023-04-06T19:03:15.395Z,13.82
2023-04-06T19:05:44.334Z,13.80
2023-04-06T19:08:13.661Z,13.65
2023-04-06T19:10:41.595Z,12.77
2023-04-06T19:13:09.969Z,13.90
2023-04-06T19:15:41.001Z,15.50
2023-04-06T19:18:08.920Z,16.08
2023-04-06T19:20:36.818Z,17.42
2023-04-06T19:23:04.860Z,16.38
2023-04-06T19:25:34.284Z,15.60
2023-04-06T19:28:02.171Z,16.50
2023-04-06T19:30:29.986Z,15.27
2023-04-06T19:32:57.975Z,15.95
2023-04-06T19:35:25.761Z,13.98
2023-04-06T19:37:53.848Z,15.45
2023-04-06T19:40:21.681Z,15.73
2023-04-06T19:42:50.952Z,14.93
2023-04-06T19:45:18.883Z,15.68
2023-04-06T19:47:46.719Z,15.50
2023-04-06T19:50:15.450Z,14.95
2023-04-06T19:52:43.796Z,22.35
2023-04-06T19:55:11.667Z,18.15
2023-04-06T19:57:39.664Z,19.73
2023-04-06T20:00:10.987Z,17.98
2023-04-06T20:02:39.928Z,16.50
2023-04-06T20:05:08.311Z,16.42
2023-04-06T20:07:37.804Z,17.60
2023-04-06T20:10:07.913Z,16.08
2023-04-06T20:12:36.129Z,17.40
2023-04-06T20:15:04.533Z,16.42
2023-04-06T20:17:33.849Z,16.05
2023-04-06T20:20:01.732Z,18.55
2023-04-06T20:22:29.603Z,16.92
2023-04-06T20:24:57.437Z,18.40
2023-04-06T20:27:25.570Z,18.77
2023-04-06T20:29:53.574Z,17.17
2023-04-06T20:32:21.857Z,15.38
2023-04-06T20:34:52.618Z,14.93
2023-04-06T20:37:21.378Z,15.00
2023-04-06T20:39:49.374Z,14.98
2023-04-06T20:42:17.947Z,15.68
2023-04-06T20:44:46.795Z,15.63
2023-04-06T20:47:14.874Z,16.33
2023-04-06T20:49:43.188Z,15.95
2023-04-06T20:52:13.061Z,16.55
2023-04-06T20:54:40.946Z,17.13
2023-04-06T20:57:08.915Z,16.33
2023-04-06T20:59:37.694Z,16.13
2023-04-06T21:02:05.772Z,15.77
2023-04-06T21:04:35.281Z,15.80
2023-04-06T21:07:04.698Z,16.23
2023-04-06T21:09:36.061Z,17.40
2023-04-06T21:12:04.082Z,15.43
2023-04-06T21:14:32.075Z,16.92
2023-04-06T21:17:00.741Z,15.00
2023-04-06T21:19:29.258Z,17.50
2023-04-06T21:21:57.255Z,17.05
2023-04-06T21:24:25.782Z,16.65
2023-04-06T21:26:55.162Z,16.63
2023-04-06T21:29:23.136Z,16.87
2023-04-06T21:31:50.996Z,18.65
2023-04-06T21:34:19.100Z,19.75
2023-04-06T21:36:47.078Z,19.02
2023-04-06T21:39:14.944Z,19.73
2023-04-06T21:41:42.808Z,17.83
2023-04-06T21:44:11.966Z,21.70
2023-04-06T21:46:39.911Z,21.25
2023-04-06T21:49:07.879Z,23.83
2023-04-06T21:51:35.991Z,26.17
2023-04-06T21:54:03.823Z,26.80
2023-04-06T21:56:31.763Z,22.80
2023-04-06T21:58:59.825Z,20.70
2023-04-06T22:01:29.499Z,22.48
2023-04-06T22:03:57.782Z,20.95
2023-04-06T22:06:26.013Z,19.88
2023-04-06T22:08:53.885Z,19.27
2023-04-06T22:11:21.848Z,18.08
2023-04-06T22:13:49.819Z,17.73
2023-04-06T22:16:18.564Z,18.17
2023-04-06T22:18:47.813Z,18.15
2023-04-06T22:21:15.743Z,17.70
2023-04-06T22:23:43.832Z,16.98
2023-04-06T22:26:12.664Z,19.25
2023-04-06T22:28:40.650Z,18.30
2023-04-06T22:31:08.466Z,19.55
2023-04-06T22:33:36.346Z,18.33
2023-04-06T22:36:06.205Z,17.98
2023-04-06T22:38:34.162Z,17.90
2023-04-06T22:41:02.013Z,17.40
2023-04-06T22:43:29.827Z,16.67
2023-04-06T22:45:57.750Z,16.75
2023-04-06T22:48:25.770Z,17.83
2023-04-06T22:50:53.845Z,18.75
2023-04-06T22:53:22.986Z,24.00
2023-04-06T22:55:50.838Z,19.95
2023-04-06T22:58:18.821Z,20.58
2023-04-06T23:00:46.683Z,19.75
2023-04-06T23:03:14.707Z,19.80
2023-04-06T23:05:42.774Z,18.63
2023-04-06T23:08:10.826Z,20.48
2023-04-06T23:10:42.052Z,20.75
2023-04-06T23:13:10.085Z,19.48
2023-04-06T23:15:38.031Z,17.88
2023-04-06T23:18:06.189Z,17.67
2023-04-06T23:20:34.113Z,17.95
2023-04-06T23:23:01.972Z,17.00
2023-04-06T23:25:29.795Z,18.58
2023-04-06T23:27:58.960Z,16.67
2023-04-06T23:30:26.798Z,17.48
2023-04-06T23:32:54.642Z,18.98
2023-04-06T23:35:22.509Z,18.35
2023-04-06T23:37:50.374Z,18.08
2023-04-06T23:40:18.437Z,16.38
2023-04-06T23:42:46.228Z,16.63
2023-04-06T23:45:15.693Z,18.48
2023-04-06T23:47:43.550Z,18.67
2023-04-06T23:50:11.937Z,17.50
2023-04-06T23:52:39.713Z,17.05
2023-04-06T23:55:08.472Z,18.15
2023-04-06T23:57:36.407Z,16.60
